Time;durP1;ratioP1;P1;durP2;ratioP2;P2;SDS_P1;SDS_P2;PMS_P1;PMS_P2;Temp;Humidity;BMP_temperature;BMP_pressure;BME280_temperature;BME280_humidity;BME280_pressure;Samples;Min_cycle;Max_cycle;Signal;HPM_P1;HPM_P2
2023/05/24 00:00:42;;;;;;;27.35;18.02;;;;;;;29.93;74.19;100907.50;5107259;27;65184;-39
2023/05/24 00:03:14;;;;;;;29.88;18.17;;;;;;;29.83;76.13;100880.88;5107757;27;70066;-40
2023/05/24 00:05:45;;;;;;;28.13;18.95;;;;;;;30.05;78.48;100915.78;5117747;27;65577;-39
2023/05/24 00:08:17;;;;;;;31.67;17.40;;;;;;;29.91;80.34;100898.75;5111167;27;69952;-40
2023/05/24 00:10:47;;;;;;;29.45;18.05;;;;;;;30.19;78.97;100914.66;5108266;27;66885;-40
2023/05/24 00:13:19;;;;;;;34.63;18.20;;;;;;;30.21;79.03;100918.00;5109912;27;69972;-39
2023/05/24 00:15:49;;;;;;;27.23;17.33;;;;;;;30.33;78.20;100920.88;5108470;27;66560;-39
2023/05/24 00:18:21;;;;;;;24.08;16.15;;;;;;;30.32;78.12;100916.53;5110131;27;71294;-39
2023/05/24 00:20:52;;;;;;;24.58;17.35;;;;;;;30.38;79.66;100920.25;5106582;27;66231;-43
2023/05/24 00:23:24;;;;;;;34.88;19.50;;;;;;;30.39;77.69;100913.78;5107289;27;70409;-39
2023/05/24 00:25:55;;;;;;;24.73;17.92;;;;;;;30.47;79.52;100924.34;5109069;27;66747;-39
2023/05/24 00:28:27;;;;;;;27.38;18.15;;;;;;;30.50;78.46;100932.03;5105542;27;69829;-39
2023/05/24 00:30:58;;;;;;;36.83;17.75;;;;;;;30.54;77.07;100925.16;5106349;27;67109;-39
2023/05/24 00:33:29;;;;;;;23.83;16.50;;;;;;;30.63;76.95;100931.97;5108489;27;70575;-39
2023/05/24 00:36:00;;;;;;;43.85;15.48;;;;;;;30.61;76.25;100920.50;5102363;27;65331;-40
2023/05/24 00:38:31;;;;;;;27.50;14.90;;;;;;;30.58;75.62;100903.88;5106805;27;70537;-39
2023/05/24 00:41:02;;;;;;;20.77;12.15;;;;;;;30.54;73.13;100881.84;5103246;27;66321;-39
2023/05/24 00:43:33;;;;;;;11.00;9.93;;;;;;;30.46;72.44;100888.34;5104515;27;69717;-40
2023/05/24 00:46:26;;;;;;;17.40;11.00;;;;;;;30.77;72.67;100940.00;5103697;27;65882;-39
2023/05/24 00:48:58;;;;;;;11.45;10.00;;;;;;;30.76;71.49;100931.06;5103526;27;70281;-38
2023/05/24 00:51:31;;;;;;;11.43;10.40;;;;;;;30.84;71.70;100940.81;5111046;27;66832;-39
2023/05/24 00:54:02;;;;;;;13.00;10.75;;;;;;;30.78;71.37;100925.41;5103725;27;70155;-38
2023/05/24 00:56:33;;;;;;;12.23;10.98;;;;;;;30.94;71.36;100942.00;5103829;27;66858;-40
2023/05/24 00:59:08;;;;;;;15.40;11.27;;;;;;;30.97;71.02;100946.16;5104953;27;43615;-40
2023/05/24 01:01:40;;;;;;;12.10;10.75;;;;;;;30.95;70.98;100942.81;5108180;27;66278;-39
2023/05/24 01:04:12;;;;;;;11.45;10.48;;;;;;;31.03;70.90;100942.56;5110038;27;70025;-39
2023/05/24 01:07:08;;;;;;;11.10;9.80;;;;;;;30.95;72.10;100948.25;5108443;27;66425;-39
2023/05/24 01:10:04;;;;;;;12.82;10.35;;;;;;;31.07;71.08;100968.16;5089781;27;69438;-40
2023/05/24 01:12:55;;;;;;;10.55;9.60;;;;;;;31.05;71.59;100943.16;5104586;27;66491;-39
2023/05/24 01:15:39;;;;;;;11.55;10.48;;;;;;;30.68;70.87;100872.59;5104477;27;69988;-40
2023/05/24 01:18:33;;;;;;;11.63;10.32;;;;;;;31.08;71.84;100948.16;5099483;27;67221;-40
2023/05/24 01:21:26;;;;;;;10.40;9.60;;;;;;;31.15;71.07;100943.53;5100416;27;70089;-39
2023/05/24 01:24:17;;;;;;;11.23;9.88;;;;;;;31.21;71.10;100952.66;5084205;27;66976;-40
2023/05/24 01:27:08;;;;;;;11.15;9.88;;;;;;;30.33;71.15;100809.94;5106939;27;69446;-39
2023/05/24 01:29:40;;;;;;;10.95;10.05;;;;;;;31.19;70.64;100933.06;5106933;27;65337;-39
2023/05/24 01:32:12;;;;;;;11.02;9.98;;;;;;;31.31;70.28;100954.84;5115418;27;70508;-39
2023/05/24 01:34:43;;;;;;;12.95;10.18;;;;;;;31.07;70.51;100914.00;5112794;27;66643;-39
2023/05/24 01:37:14;;;;;;;12.20;10.40;;;;;;;31.35;70.76;100967.75;5109605;27;70590;-39
2023/05/24 01:39:45;;;;;;;12.30;9.75;;;;;;;31.24;70.14;100935.13;5108606;27;66240;-39
2023/05/24 01:42:57;;;;;;;13.50;9.52;;;;;;;31.31;71.08;100968.41;5106134;27;69888;-39
2023/05/24 01:45:46;;;;;;;10.68;9.80;;;;;;;31.42;70.72;100970.41;5102014;27;66498;-39
2023/05/24 01:48:37;;;;;;;10.45;9.55;;;;;;;30.48;70.51;100834.81;5103238;27;70385;-40
2023/05/24 01:51:10;;;;;;;11.25;9.50;;;;;;;31.50;70.48;100978.28;5104496;27;66249;-40
2023/05/24 01:53:48;;;;;;;9.88;8.88;;;;;;;30.70;70.39;100842.56;5113625;27;69905;-39
2023/05/24 01:56:20;;;;;;;13.48;10.20;;;;;;;31.52;70.41;100970.75;5107561;27;65996;-40
2023/05/24 01:58:58;;;;;;;14.45;9.80;;;;;;;30.73;70.60;100842.97;5122970;27;69885;-39
2023/05/24 02:01:31;;;;;;;9.43;8.65;;;;;;;31.60;70.38;100981.31;5117803;27;66200;-39
2023/05/24 02:04:02;;;;;;;10.70;9.75;;;;;;;31.61;70.43;100977.53;5113375;27;70331;-39
2023/05/24 02:06:33;;;;;;;11.00;8.77;;;;;;;31.63;70.14;100971.09;5109410;27;65798;-40
2023/05/24 02:09:04;;;;;;;10.93;9.88;;;;;;;31.58;70.46;100959.00;5109065;27;70022;-40
2023/05/24 02:11:35;;;;;;;14.02;10.05;;;;;;;31.68;70.33;100973.94;5095993;27;65689;-40
2023/05/24 02:14:06;;;;;;;10.05;9.32;;;;;;;31.69;70.39;100979.13;5116027;27;70298;-40
2023/05/24 02:16:41;;;;;;;13.65;9.65;;;;;;;31.72;70.20;100969.72;5121923;27;66626;-40
2023/05/24 02:19:13;;;;;;;10.75;9.80;;;;;;;31.77;70.27;100972.59;5116271;27;70602;-40
2023/05/24 02:21:45;;;;;;;10.63;9.73;;;;;;;31.43;70.41;100912.44;5103148;27;65303;-40
2023/05/24 02:24:17;;;;;;;10.55;9.45;;;;;;;31.70;70.27;100953.66;5113535;27;70538;-39
2023/05/24 02:26:47;;;;;;;;;;;;;;;31.52;72.02;100962.63;5115010;27;66928;-40
2023/05/24 02:29:18;;;;;;;10.65;9.57;;;;;;;31.71;70.31;100951.81;5106589;27;70758;-40
2023/05/24 02:31:55;;;;;;;10.37;9.47;;;;;;;31.85;70.58;100972.31;5111327;27;67114;-40
2023/05/24 02:34:26;;;;;;;10.02;9.30;;;;;;;31.90;70.51;100964.34;5103598;27;69796;-40
2023/05/24 02:36:57;;;;;;;10.88;9.88;;;;;;;31.90;69.98;100958.91;5115409;27;65400;-41
2023/05/24 02:39:28;;;;;;;9.93;9.07;;;;;;;31.76;69.98;100932.94;5111386;27;70405;-41
2023/05/24 02:41:59;;;;;;;10.43;9.70;;;;;;;31.34;69.62;100859.53;5118180;27;65466;-40
2023/05/24 02:44:30;;;;;;;13.43;9.38;;;;;;;32.00;69.91;100955.69;5112068;27;70448;-48
2023/05/24 02:47:01;;;;;;;10.93;9.95;;;;;;;31.98;69.42;100947.78;5117871;27;65668;-40
2023/05/24 02:49:32;;;;;;;10.20;9.20;;;;;;;32.02;69.37;100948.97;5113837;27;69982;-41
2023/05/24 02:52:04;;;;;;;11.13;9.77;;;;;;;32.12;69.24;100958.47;5120366;27;66278;-42
2023/05/24 02:54:35;;;;;;;10.63;9.55;;;;;;;32.01;69.47;100941.91;5109610;27;69694;-40
2023/05/24 02:57:06;;;;;;;10.48;9.55;;;;;;;32.07;69.01;100933.88;5110683;27;65718;-40
2023/05/24 02:59:42;;;;;;;10.55;9.55;;;;;;;32.02;68.74;100916.41;5105366;27;69350;-43
2023/05/24 03:02:13;;;;;;;13.52;9.82;;;;;;;32.20;68.83;100944.59;5119256;27;65412;-39
2023/05/24 03:04:44;;;;;;;10.35;9.60;;;;;;;32.25;68.72;100937.41;5094922;27;69403;-41
2023/05/24 03:07:16;;;;;;;9.57;8.85;;;;;;;32.21;68.29;100924.56;5113864;27;66298;-40
2023/05/24 03:09:47;;;;;;;9.48;8.57;;;;;;;32.33;67.83;100939.00;5115594;27;70205;-41
2023/05/24 03:12:18;;;;;;;9.48;8.57;;;;;;;32.35;67.98;100930.63;5114727;27;66483;-40
2023/05/24 03:14:49;;;;;;;9.37;8.67;;;;;;;32.37;67.56;100928.50;5111054;27;69323;-41
2023/05/24 03:17:20;;;;;;;9.90;9.07;;;;;;;32.35;67.41;100925.22;5117902;27;66470;-40
2023/05/24 03:19:52;;;;;;;9.55;8.60;;;;;;;32.31;67.41;100913.97;5111283;27;70271;-40
2023/05/24 03:22:41;;;;;;;10.15;8.85;;;;;;;32.43;67.13;100917.56;5113193;27;66157;-42
2023/05/24 03:25:30;;;;;;;9.07;8.38;;;;;;;32.43;67.03;100911.28;5109500;27;70749;-40
2023/05/24 03:28:21;;;;;;;9.20;8.70;;;;;;;32.52;66.86;100914.56;5105363;27;65261;-39
2023/05/24 03:31:11;;;;;;;14.32;8.77;;;;;;;32.52;66.79;100903.69;5105470;27;69883;-39
2023/05/24 03:34:00;;;;;;;9.07;8.18;;;;;;;32.56;66.86;100905.69;5107115;27;67119;-40
2023/05/24 03:36:52;;;;;;;9.47;8.77;;;;;;;32.57;66.80;100903.81;5113091;27;70191;-40
2023/05/24 03:39:41;;;;;;;9.95;8.90;;;;;;;32.02;66.42;100807.88;5114524;27;66102;-40
2023/05/24 03:42:49;;;;;;;13.32;9.05;;;;;;;32.59;66.58;100888.13;5104190;27;70772;-40
2023/05/24 03:45:42;;;;;;;9.43;8.63;;;;;;;32.65;66.27;100881.75;5101538;27;66720;-39
2023/05/24 03:48:31;;;;;;;8.70;8.00;;;;;;;32.64;65.91;100883.66;5119317;27;70424;-40
2023/05/24 03:51:02;;;;;;;8.65;7.85;;;;;;;32.50;66.36;100863.19;5104302;27;66368;-39
2023/05/24 03:53:35;;;;;;;10.50;8.10;;;;;;;32.40;65.90;100839.31;5119461;27;69876;-40
2023/05/24 03:56:06;;;;;;;11.30;8.40;;;;;;;32.63;66.10;100862.16;5111439;27;66303;-40
2023/05/24 03:58:38;;;;;;;8.68;8.07;;;;;;;32.48;65.76;100833.56;5101552;27;70501;-40
2023/05/24 04:01:08;;;;;;;9.93;8.55;;;;;;;32.56;65.42;100828.84;5110724;27;65884;-40
2023/05/24 04:03:55;;;;;;;9.18;8.50;;;;;;;32.66;65.69;100851.66;5101126;27;70016;-41
2023/05/24 04:06:27;;;;;;;;;;;;;;;32.51;65.89;100874.88;5103531;27;66685;-40
2023/05/24 04:09:00;;;;;;;10.15;8.18;;;;;;;32.76;65.42;100875.53;5103301;27;68910;-40
2023/05/24 04:11:31;;;;;;;11.02;8.93;;;;;;;32.79;65.22;100871.50;5106422;27;65298;-41
2023/05/24 04:14:02;;;;;;;13.95;8.90;;;;;;;32.81;65.04;100866.69;5099372;27;69894;-40
2023/05/24 04:16:33;;;;;;;9.07;8.30;;;;;;;32.80;65.23;100868.56;5111351;27;65415;-41
2023/05/24 04:19:07;;;;;;;9.77;8.50;;;;;;;32.77;64.80;100858.19;5106760;27;70365;-40
2023/05/24 04:21:38;;;;;;;9.53;8.60;;;;;;;32.83;64.79;100862.66;5109591;27;67407;-41
2023/05/24 04:24:09;;;;;;;9.48;8.68;;;;;;;32.70;64.73;100831.09;5117228;27;69930;-40
2023/05/24 04:26:40;;;;;;;9.88;8.77;;;;;;;32.73;64.68;100829.81;5113165;27;66706;-42
2023/05/24 04:29:11;;;;;;;11.57;8.40;;;;;;;32.90;64.77;100857.97;5089364;27;70320;-41
2023/05/24 04:31:43;;;;;;;9.02;8.20;;;;;;;32.90;64.76;100852.53;5107403;27;68219;-41
2023/05/24 04:34:15;;;;;;;9.30;8.27;;;;;;;32.93;64.37;100852.06;5108708;27;69830;-41
2023/05/24 04:36:48;;;;;;;15.55;8.77;;;;;;;32.94;64.05;100831.16;5104177;27;65630;-40
2023/05/24 04:39:19;;;;;;;8.93;7.53;;;;;;;32.99;64.18;100844.00;5108295;27;71248;-40
2023/05/24 04:41:51;;;;;;;9.95;7.82;;;;;;;32.79;63.87;100804.44;5105198;27;65769;-41
2023/05/24 04:44:23;;;;;;;12.68;8.57;;;;;;;32.99;64.04;100817.69;5105155;27;69866;-42
2023/05/24 04:46:54;;;;;;;9.37;8.20;;;;;;;33.00;63.67;100807.66;5103446;27;66431;-41
2023/05/24 04:49:25;;;;;;;8.88;7.60;;;;;;;33.05;63.81;100807.78;5107106;27;69959;-42
2023/05/24 04:51:56;;;;;;;10.25;8.70;;;;;;;32.88;63.55;100775.88;5102840;27;66025;-42
2023/05/24 04:54:30;;;;;;;10.65;8.30;;;;;;;33.09;63.55;100811.66;5106321;27;70326;-43
2023/05/24 04:57:00;;;;;;;13.15;7.88;;;;;;;33.10;63.60;100813.34;5105066;27;65670;-42
2023/05/24 04:59:32;;;;;;;13.50;8.50;;;;;;;33.10;63.74;100797.03;5107148;27;69220;-42
2023/05/24 05:02:03;;;;;;;9.70;7.65;;;;;;;32.43;63.45;100677.81;5107564;27;64820;-41
2023/05/24 05:04:34;;;;;;;8.88;8.02;;;;;;;33.10;63.53;100783.44;5112004;27;69244;-42
2023/05/24 05:07:06;;;;;;;10.95;6.78;;;;;;;33.15;63.56;100780.81;5087441;27;66526;-41
2023/05/24 05:09:37;;;;;;;8.38;7.47;;;;;;;33.18;63.22;100772.19;5097757;27;68677;-41
2023/05/24 05:12:08;;;;;;;8.27;7.68;;;;;;;33.23;63.43;100769.59;5101919;27;66600;-43
2023/05/24 05:14:39;;;;;;;8.75;7.93;;;;;;;33.22;63.15;100773.38;5103588;27;68922;-42
2023/05/24 05:17:10;;;;;;;8.73;7.85;;;;;;;33.19;63.23;100765.69;5104697;27;66056;-41
2023/05/24 05:19:42;;;;;;;8.50;7.63;;;;;;;33.23;63.16;100764.16;5099038;27;70269;-41
2023/05/24 05:22:13;;;;;;;11.40;7.90;;;;;;;33.17;63.36;100754.22;5102172;27;65906;-40
2023/05/24 05:24:44;;;;;;;9.85;7.68;;;;;;;33.18;63.08;100753.16;5110222;27;70065;-41
2023/05/24 05:27:15;;;;;;;8.63;7.78;;;;;;;33.28;63.07;100750.66;5103653;27;66070;-40
2023/05/24 05:29:46;;;;;;;7.95;7.20;;;;;;;33.29;63.30;100746.91;5108409;27;70168;-46
2023/05/24 05:32:17;;;;;;;8.02;7.43;;;;;;;33.32;63.04;100730.09;5106839;27;66434;-41
2023/05/24 05:34:49;;;;;;;9.98;7.20;;;;;;;33.34;62.92;100719.78;5112437;27;69981;-41
2023/05/24 05:37:20;;;;;;;8.13;7.45;;;;;;;33.34;63.19;100716.25;5114756;27;65809;-41
2023/05/24 05:39:51;;;;;;;14.27;7.22;;;;;;;33.44;62.87;100731.97;5122287;27;70007;-41
2023/05/24 05:42:22;;;;;;;8.07;7.28;;;;;;;33.42;63.14;100709.63;5112764;27;65670;-40
2023/05/24 05:44:53;;;;;;;11.15;7.03;;;;;;;33.23;62.76;100665.47;5111078;27;69891;-41
2023/05/24 05:47:24;;;;;;;7.45;6.82;;;;;;;33.46;62.77;100702.63;5104037;27;66236;-40
2023/05/24 05:49:55;;;;;;;8.23;7.57;;;;;;;33.52;62.85;100702.53;5109314;27;70035;-41
2023/05/24 05:52:26;;;;;;;9.00;7.07;;;;;;;33.55;62.71;100703.94;5104073;27;66970;-42
2023/05/24 05:54:59;;;;;;;7.68;6.97;;;;;;;33.51;62.62;100687.22;5116466;27;69185;-41
2023/05/24 05:57:30;;;;;;;8.38;7.53;;;;;;;33.49;62.39;100680.38;5113239;27;65848;-41
2023/05/24 06:00:01;;;;;;;7.78;7.07;;;;;;;33.65;62.54;100695.94;5107954;27;69168;-43
2023/05/24 06:02:39;;;;;;;9.00;7.18;;;;;;;33.69;62.36;100697.13;5113205;27;65827;-41
2023/05/24 06:05:11;;;;;;;7.78;7.00;;;;;;;33.60;62.62;100676.84;5110054;27;70429;-42
2023/05/24 06:07:44;;;;;;;7.95;7.25;;;;;;;33.74;62.28;100690.94;5099287;27;66508;-40
2023/05/24 06:10:16;;;;;;;12.20;7.45;;;;;;;33.75;62.21;100665.41;5109131;27;69822;-44
2023/05/24 06:12:46;;;;;;;11.45;7.68;;;;;;;33.73;62.09;100648.47;5118264;27;66721;-40
2023/05/24 06:15:21;;;;;;;10.98;7.25;;;;;;;33.66;62.02;100632.34;5108840;27;70161;-40
2023/05/24 06:17:53;;;;;;;8.70;7.35;;;;;;;33.87;62.31;100670.75;5103362;27;65273;-40
2023/05/24 06:20:25;;;;;;;9.32;7.45;;;;;;;33.90;61.92;100653.94;5111642;27;70592;-42
2023/05/24 06:22:56;;;;;;;7.90;7.20;;;;;;;33.92;61.58;100649.09;5118765;27;66868;-42
2023/05/24 06:25:29;;;;;;;8.73;7.55;;;;;;;33.95;61.91;100645.88;5111604;27;69956;-41
2023/05/24 06:28:00;;;;;;;8.30;7.40;;;;;;;34.00;61.70;100640.50;5107434;27;65810;-40
2023/05/24 06:30:32;;;;;;;7.95;7.18;;;;;;;33.98;61.74;100629.03;5107258;27;70109;-41
2023/05/24 06:33:04;;;;;;;8.13;7.32;;;;;;;34.04;61.63;100622.59;5102606;27;65686;-40
2023/05/24 06:35:36;;;;;;;8.35;7.75;;;;;;;34.09;61.44;100614.56;5112105;27;68615;-41
2023/05/24 06:38:07;;;;;;;8.15;7.53;;;;;;;34.12;61.50;100613.22;5104010;27;66600;-41
2023/05/24 06:40:38;;;;;;;10.48;7.68;;;;;;;34.14;61.09;100605.66;5113699;27;70864;-42
2023/05/24 06:43:10;;;;;;;8.30;7.20;;;;;;;34.12;61.15;100595.00;5108430;27;65124;-40
2023/05/24 06:45:42;;;;;;;8.18;7.20;;;;;;;34.19;61.14;100594.84;5115220;27;70524;-41
2023/05/24 06:48:13;;;;;;;9.07;7.35;;;;;;;34.18;61.05;100594.00;5105992;27;65288;-40
2023/05/24 06:50:44;;;;;;;7.55;7.13;;;;;;;34.21;60.98;100595.38;5108414;27;69995;-42
2023/05/24 06:53:16;;;;;;;9.32;7.00;;;;;;;34.20;61.05;100580.97;5110516;27;66748;-41
2023/05/24 06:55:47;;;;;;;11.23;6.82;;;;;;;34.37;60.68;100601.88;5110915;27;69541;-41
2023/05/24 06:58:18;;;;;;;8.00;6.63;;;;;;;34.31;60.50;100583.84;5103901;27;65827;-41
2023/05/24 07:00:50;;;;;;;8.18;7.28;;;;;;;34.43;60.40;100593.53;5109997;27;69279;-41
2023/05/24 07:03:22;;;;;;;8.73;7.43;;;;;;;34.30;60.36;100549.50;5107014;27;66569;-40
2023/05/24 07:05:53;;;;;;;;;;;;;;;34.24;60.67;100573.97;5107495;27;70441;-42
2023/05/24 07:08:25;;;;;;;8.02;7.15;;;;;;;34.48;60.29;100579.16;5124521;27;67112;-40
2023/05/24 07:10:56;;;;;;;8.32;7.32;;;;;;;34.60;60.19;100581.78;5109988;27;69925;-41
2023/05/24 07:13:27;;;;;;;7.95;7.10;;;;;;;34.62;60.07;100579.66;5116480;27;67798;-41
2023/05/24 07:15:58;;;;;;;6.85;6.43;;;;;;;34.66;60.49;100565.28;5111327;27;69975;-40
2023/05/24 07:18:30;;;;;;;14.77;7.57;;;;;;;34.50;60.17;100538.88;5104563;27;66379;-41
2023/05/24 07:21:01;;;;;;;8.10;7.40;;;;;;;34.73;59.75;100548.72;5101350;27;69695;-40
2023/05/24 07:23:33;;;;;;;8.20;7.40;;;;;;;34.80;59.47;100543.06;5104283;27;66593;-41
2023/05/24 07:26:04;;;;;;;;;;;;;;;34.55;59.57;100547.13;5108884;27;69796;-41
2023/05/24 07:28:39;;;;;;;7.63;6.93;;;;;;;34.73;59.59;100526.13;5116298;27;66374;-41
2023/05/24 07:31:10;;;;;;;8.70;7.88;;;;;;;34.81;58.99;100526.47;5103770;27;70087;-40
2023/05/24 07:33:41;;;;;;;11.88;7.40;;;;;;;34.72;59.49;100499.97;5107660;27;67147;-41
2023/05/24 07:36:14;;;;;;;8.10;7.38;;;;;;;34.96;58.83;100542.16;5109535;27;69112;-40
2023/05/24 07:38:45;;;;;;;;;;;;;;;34.72;58.61;100525.28;5105653;27;66924;-40
2023/05/24 07:41:17;;;;;;;8.80;7.95;;;;;;;34.79;59.18;100487.75;5107407;27;70371;-41
2023/05/24 07:43:48;;;;;;;8.43;7.72;;;;;;;35.03;58.65;100518.25;5109706;27;65425;-41
2023/05/24 07:46:19;;;;;;;10.88;8.10;;;;;;;35.07;59.03;100504.97;5108443;27;69337;-41
2023/05/24 07:48:51;;;;;;;9.18;8.35;;;;;;;35.08;58.91;100484.81;5110974;27;65662;-40
2023/05/24 07:51:22;;;;;;;9.70;8.88;;;;;;;35.11;58.54;100496.03;5103813;27;69802;-41
2023/05/24 07:53:53;;;;;;;9.83;8.83;;;;;;;35.14;58.27;100511.84;5112326;27;65852;-40
2023/05/24 07:56:24;;;;;;;10.90;8.88;;;;;;;35.05;59.04;100499.75;5112063;27;69387;-41
2023/05/24 07:59:02;;;;;;;13.37;9.63;;;;;;;35.18;58.08;100516.78;5108185;27;65617;-40
2023/05/24 08:01:36;;;;;;;10.35;8.65;;;;;;;35.02;58.17;100481.19;5109366;27;70538;-41
2023/05/24 08:04:09;;;;;;;11.10;9.18;;;;;;;35.22;58.10;100520.66;5113944;27;65904;-41
2023/05/24 08:06:40;;;;;;;12.77;8.75;;;;;;;35.25;58.39;100509.22;5107431;27;71831;-41
2023/05/24 08:09:11;;;;;;;10.35;9.30;;;;;;;35.00;58.49;100458.81;5110913;27;66031;-41
2023/05/24 08:11:43;;;;;;;10.95;9.00;;;;;;;35.16;58.54;100459.81;5105475;27;69073;-41
2023/05/24 08:14:13;;;;;;;10.60;8.65;;;;;;;35.21;58.02;100467.19;5083464;27;65188;-50
2023/05/24 08:16:45;;;;;;;19.63;8.98;;;;;;;35.25;57.82;100463.69;5105296;27;70134;-42
2023/05/24 08:19:16;;;;;;;9.70;8.80;;;;;;;35.30;58.30;100455.56;5114897;27;66959;-41
2023/05/24 08:21:47;;;;;;;9.90;8.77;;;;;;;35.18;57.86;100435.00;5108917;27;71593;-40
2023/05/24 08:24:18;;;;;;;9.27;8.32;;;;;;;35.34;57.64;100466.75;5110051;27;66184;-40
2023/05/24 08:26:51;;;;;;;10.45;9.45;;;;;;;35.24;57.63;100450.31;5107000;27;69531;-40
2023/05/24 08:29:23;;;;;;;13.55;8.43;;;;;;;35.34;58.03;100477.66;5113681;27;66363;-41
2023/05/24 08:31:54;;;;;;;9.70;8.38;;;;;;;35.37;57.99;100493.50;5109060;27;70384;-40
2023/05/24 08:34:25;;;;;;;12.45;9.32;;;;;;;35.35;57.71;100517.47;5109598;27;66756;-40
2023/05/24 08:36:57;;;;;;;9.48;8.73;;;;;;;35.23;58.06;100519.56;5111394;27;69996;-40
2023/05/24 08:39:28;;;;;;;10.10;8.57;;;;;;;35.32;57.53;100540.63;5106812;27;66272;-42
2023/05/24 08:41:59;;;;;;;11.43;9.77;;;;;;;35.26;57.52;100508.16;5105603;27;69971;-42
2023/05/24 08:45:00;;;;;;;15.93;8.75;;;;;;;35.02;56.97;100455.81;5109633;27;65907;-40
2023/05/24 08:47:32;;;;;;;12.00;9.18;;;;;;;35.22;57.43;100469.69;5097628;27;69257;-41
2023/05/24 08:50:05;;;;;;;12.30;9.90;;;;;;;35.32;57.50;100479.81;5110975;27;66252;-40
2023/05/24 08:52:38;;;;;;;9.80;8.90;;;;;;;35.43;57.48;100495.19;5109753;27;69379;-41
2023/05/24 08:55:10;;;;;;;11.80;10.00;;;;;;;35.44;57.92;100491.41;5108160;27;65304;-41
2023/05/24 08:57:43;;;;;;;11.40;10.27;;;;;;;35.43;57.53;100476.09;5103067;27;70625;-42
2023/05/24 09:00:15;;;;;;;10.90;9.93;;;;;;;35.41;57.89;100477.44;5111095;27;66255;-42
2023/05/24 09:02:47;;;;;;;10.75;9.57;;;;;;;35.20;57.45;100460.13;5103603;27;69853;-41
2023/05/24 09:05:20;;;;;;;11.38;10.30;;;;;;;35.37;58.10;100493.50;5101771;27;65603;-40
2023/05/24 09:07:54;;;;;;;13.65;9.95;;;;;;;35.39;57.97;100496.81;5106728;27;70406;-41
2023/05/24 09:10:28;;;;;;;13.00;10.30;;;;;;;35.28;57.74;100489.63;5118631;27;66203;-40
2023/05/24 09:13:19;;;;;;;13.25;10.05;;;;;;;35.39;57.90;100485.91;5112817;27;69570;-41
2023/05/24 09:15:50;;;;;;;12.05;10.82;;;;;;;35.36;57.97;100494.59;5113613;27;66748;-41
2023/05/24 09:18:22;;;;;;;11.25;10.25;;;;;;;35.27;58.09;100499.72;5108785;27;70478;-40
2023/05/24 09:20:52;;;;;;;11.97;10.83;;;;;;;35.32;58.23;100527.00;5108470;27;66889;-41
2023/05/24 09:23:26;;;;;;;11.55;10.18;;;;;;;35.16;57.54;100505.31;5119388;27;70488;-40
2023/05/24 09:25:57;;;;;;;11.90;10.65;;;;;;;35.28;57.81;100533.25;5113915;27;66176;-40
2023/05/24 09:28:32;;;;;;;15.32;10.77;;;;;;;35.35;57.61;100555.66;5103599;27;70468;-40
2023/05/24 09:31:03;;;;;;;18.30;11.57;;;;;;;35.33;57.69;100553.22;5105184;27;66540;-43
2023/05/24 09:33:39;;;;;;;14.13;11.00;;;;;;;34.65;57.39;100441.03;5110783;27;70425;-42
2023/05/24 09:36:10;;;;;;;11.70;10.57;;;;;;;35.28;57.68;100542.25;5111870;27;65811;-41
2023/05/24 09:38:42;;;;;;;12.10;10.73;;;;;;;35.30;58.18;100541.97;5112934;27;71289;-40
2023/05/24 09:41:13;;;;;;;12.53;10.87;;;;;;;33.90;57.93;100327.44;5105200;27;65945;-42
2023/05/24 09:43:49;;;;;;;13.23;11.30;;;;;;;35.27;57.89;100504.31;5113321;27;69387;-41
2023/05/24 09:46:20;;;;;;;15.25;10.70;;;;;;;35.06;58.05;100468.72;5102381;27;66335;-41
2023/05/24 09:48:59;;;;;;;12.85;11.50;;;;;;;35.25;57.52;100511.97;5115651;27;69787;-41
2023/05/24 09:51:31;;;;;;;16.90;11.05;;;;;;;35.15;57.62;100518.13;5115015;27;67113;-41
2023/05/24 09:54:02;;;;;;;15.60;10.90;;;;;;;34.99;58.07;100514.38;5121430;27;70696;-41
2023/05/24 09:56:33;;;;;;;14.20;10.77;;;;;;;35.24;58.11;100559.38;5121398;27;66028;-41
2023/05/24 09:59:08;;;;;;;17.45;11.35;;;;;;;35.22;57.83;100556.94;5112386;27;71113;-42
2023/05/24 10:01:39;;;;;;;12.52;10.55;;;;;;;35.22;58.52;100554.19;5114222;27;65309;-41
2023/05/24 10:04:11;;;;;;;17.92;11.82;;;;;;;35.17;57.85;100547.88;5110525;27;69414;-41
2023/05/24 10:06:43;;;;;;;14.82;11.05;;;;;;;35.08;57.81;100544.78;5102792;27;66585;-40
2023/05/24 10:09:15;;;;;;;14.38;10.38;;;;;;;35.15;58.22;100561.75;5109085;27;70181;-41
2023/05/24 10:11:45;;;;;;;12.57;10.80;;;;;;;35.11;58.37;100561.44;5101791;27;66287;-42
2023/05/24 10:14:17;;;;;;;15.55;10.77;;;;;;;35.14;58.46;100571.84;5113764;27;69950;-40
2023/05/24 10:16:48;;;;;;;14.13;11.48;;;;;;;35.12;58.06;100563.09;5110465;27;65273;-40
2023/05/24 10:19:20;;;;;;;11.23;10.40;;;;;;;35.07;58.26;100549.41;5108354;27;69685;-44
2023/05/24 10:21:56;;;;;;;15.50;11.63;;;;;;;35.09;58.30;100560.88;5111984;27;66529;-44
2023/05/24 10:24:34;;;;;;;14.90;12.02;;;;;;;34.81;59.57;100566.53;5108255;27;70518;-42
2023/05/24 10:27:12;;;;;;;23.30;13.70;;;;;;;34.44;59.74;100496.34;5110969;27;66608;-40
2023/05/24 10:29:46;;;;;;;19.92;13.55;;;;;;;34.68;60.07;100557.66;5114322;27;69510;-40
2023/05/24 10:32:19;;;;;;;18.95;13.85;;;;;;;34.17;60.82;100488.91;5107219;27;66092;-40
2023/05/24 10:34:52;;;;;;;20.42;13.13;;;;;;;34.56;60.70;100576.03;5105356;27;69399;-40
2023/05/24 10:37:25;;;;;;;21.00;13.52;;;;;;;33.85;61.08;100487.88;5108363;27;65331;-41
2023/05/24 10:39:59;;;;;;;23.67;12.68;;;;;;;34.31;61.21;100568.31;5107729;27;70448;-41
2023/05/24 10:42:35;;;;;;;23.60;14.15;;;;;;;34.44;61.18;100599.81;5108115;27;66702;-40
2023/05/24 10:45:25;;;;;;;19.23;13.35;;;;;;;34.35;61.75;100595.88;5109501;27;70522;-40
2023/05/24 10:47:56;;;;;;;25.25;13.35;;;;;;;34.31;61.61;100592.00;5110432;27;65747;-39
2023/05/24 10:50:28;;;;;;;19.92;13.30;;;;;;;34.19;62.32;100587.50;5110016;27;69609;-40
2023/05/24 10:53:14;;;;;;;22.77;14.25;;;;;;;34.30;61.82;100610.25;5111731;27;65546;-40
2023/05/24 10:55:53;;;;;;;29.67;13.32;;;;;;;33.40;62.22;100464.31;5109221;27;69825;-41
2023/05/24 10:58:48;;;;;;;25.88;11.95;;;;;;;33.40;61.96;100480.63;5084394;27;65495;-40
2023/05/24 11:01:32;;;;;;;23.02;12.95;;;;;;;34.20;61.76;100620.97;5090213;27;70703;-40
2023/05/24 11:04:17;;;;;;;18.85;11.65;;;;;;;33.81;62.25;100583.59;5100870;27;66570;-39
2023/05/24 11:07:02;;;;;;;15.35;11.85;;;;;;;34.19;62.79;100647.38;5081933;27;69815;-39
2023/05/24 11:09:33;;;;;;;19.70;11.95;;;;;;;34.18;62.93;100653.88;5089691;27;65432;-42
2023/05/24 11:12:08;;;;;;;22.02;11.82;;;;;;;34.11;62.87;100647.78;5086522;27;70278;-41
2023/05/24 11:14:39;;;;;;;15.23;11.20;;;;;;;33.83;63.41;100610.56;5090154;27;66543;-40
2023/05/24 11:17:10;;;;;;;;;;;;;;;33.99;64.88;100674.22;5093222;27;70709;-40
2023/05/24 11:19:53;;;;;;;17.92;10.50;;;;;;;34.26;63.16;100680.69;5090708;27;65429;-40
2023/05/24 11:22:25;;;;;;;12.32;9.23;;;;;;;33.47;62.51;100560.16;5088645;27;70314;-40
2023/05/24 11:25:01;;;;;;;13.23;8.82;;;;;;;34.41;62.50;100709.25;5094861;27;65149;-41
2023/05/24 11:27:34;;;;;;;13.23;8.68;;;;;;;34.39;62.27;100711.41;5091146;27;70035;-40
2023/05/24 11:30:06;;;;;;;9.10;8.20;;;;;;;34.47;61.74;100735.50;5089608;27;65528;-45
2023/05/24 11:32:41;;;;;;;16.30;8.00;;;;;;;34.47;62.15;100730.88;5084263;27;69371;-40
2023/05/24 11:35:12;;;;;;;12.07;8.55;;;;;;;34.26;62.10;100702.47;5089547;27;66630;-43
2023/05/24 11:37:44;;;;;;;12.13;8.23;;;;;;;34.49;61.83;100744.22;5089285;27;70077;-50
2023/05/24 11:40:17;;;;;;;10.88;7.63;;;;;;;34.50;61.77;100750.50;5073154;27;65228;-41
2023/05/24 11:42:49;;;;;;;10.27;7.78;;;;;;;34.37;61.41;100735.31;5086732;27;70138;-42
2023/05/24 11:45:20;;;;;;;8.38;7.03;;;;;;;34.47;61.92;100757.28;5093476;27;65663;-41
2023/05/24 11:47:51;;;;;;;9.07;7.65;;;;;;;34.39;62.06;100750.34;5086531;27;70379;-43
2023/05/24 11:50:25;;;;;;;7.77;7.17;;;;;;;34.40;61.44;100757.44;5093714;27;65397;-51